Time;durP1;ratioP1;P1;durP2;ratioP2;P2;SDS_P1;SDS_P2;PMS_P1;PMS_P2;Temp;Humidity;BMP_temperature;BMP_pressure;BME280_temperature;BME280_humidity;BME280_pressure;Samples;Min_cycle;Max_cycle;Signal;HPM_P1;HPM_P2
2022/07/28 00:00:27;;;;;;;;;;;11.70;99.90;;;;;;6161496;23;19923;-72
2022/07/28 00:02:53;;;;;;;;;;;11.70;99.90;;;;;;6161697;23;19939;-73
2022/07/28 00:05:27;;;;;;;;;;;11.70;99.90;;;;;;6161162;23;19927;-71
2022/07/28 00:07:53;;;;;;;;;;;11.70;99.90;;;;;;6187724;23;19931;-72
2022/07/28 00:10:21;;;;;;;;;;;11.70;99.90;;;;;;6160876;23;19923;-73
2022/07/28 00:12:52;;;;;;;;;;;11.70;99.90;;;;;;6136288;23;19916;-73
2022/07/28 00:15:21;;;;;;;;;;;11.70;99.90;;;;;;6161365;23;19916;-73
2022/07/28 00:17:48;;;;;;;;;;;11.70;99.90;;;;;;6136661;23;20311;-72
2022/07/28 00:20:21;;;;;;;;;;;11.70;99.90;;;;;;6137423;23;19916;-72
2022/07/28 00:22:58;;;;;;;;;;;11.70;99.90;;;;;;6160716;23;20323;-73
2022/07/28 00:25:23;;;;;;;;;;;11.70;99.90;;;;;;6187686;23;19922;-72
2022/07/28 00:27:52;;;;;;;;;;;11.70;99.90;;;;;;6161282;23;20342;-73
2022/07/28 00:30:23;;;;;;;;;;;11.70;99.90;;;;;;6136690;23;19912;-73
2022/07/28 00:32:51;;;;;;;;;;;11.70;99.90;;;;;;6160835;23;19916;-73
2022/07/28 00:35:25;;;;;;;;;;;11.70;99.90;;;;;;6161195;23;19919;-72
2022/07/28 00:37:51;;;;;;;;;;;11.60;99.90;;;;;;6136410;23;20235;-72
2022/07/28 00:41:09;;;;;;;;;;;11.60;99.90;;;;;;6136292;23;19916;-72
2022/07/28 00:43:19;;;;;;;;;;;11.60;99.90;;;;;;6160773;23;19918;-72
2022/07/28 00:45:44;;;;;;;;;;;11.70;99.90;;;;;;6159298;23;20246;-72
2022/07/28 00:48:16;;;;;;;;;;;11.70;99.90;;;;;;6160074;23;19950;-72
2022/07/28 00:50:43;;;;;;;;;;;11.90;99.90;;;;;;6160583;23;19912;-71
2022/07/28 00:53:09;;;;;;;;;;;11.70;99.90;;;;;;6136171;23;19916;-72
2022/07/28 00:55:35;;;;;;;;;;;11.60;99.90;;;;;;6187307;23;20268;-72
2022/07/28 00:58:00;;;;;;;;;;;11.60;99.90;;;;;;6160442;23;20327;-71
2022/07/28 01:00:26;;;;;;;;;;;11.70;99.90;;;;;;6135608;23;20382;-72
2022/07/28 01:02:54;;;;;;;;;;;11.60;99.90;;;;;;6136699;23;19995;-71
2022/07/28 01:05:23;;;;;;;;;;;11.60;99.90;;;;;;6135882;23;19952;-72
2022/07/28 01:07:58;;;;;;;;;;;11.60;99.90;;;;;;6136425;23;19999;-72
2022/07/28 01:10:36;;;;;;;;;;;11.60;99.90;;;;;;6160846;23;19971;-71
2022/07/28 01:13:08;;;;;;;;;;;11.60;99.90;;;;;;6160974;23;19916;-72
2022/07/28 01:15:44;;;;;;;;;;;11.60;99.90;;;;;;6160981;23;20459;-72
2022/07/28 01:18:30;;;;;;;;;;;11.50;99.90;;;;;;6136682;23;19951;-72
2022/07/28 01:21:06;;;;;;;;;;;11.50;99.90;;;;;;6160231;23;19995;-71
2022/07/28 01:23:32;;;;;;;;;;;11.50;99.90;;;;;;6160390;23;19912;-72
2022/07/28 01:26:16;;;;;;;;;;;11.50;99.90;;;;;;6186947;23;19934;-72
2022/07/28 01:28:58;;;;;;;;;;;11.50;99.90;;;;;;6135776;23;19912;-71
2022/07/28 01:31:28;;;;;;;;;;;11.50;99.90;;;;;;6160274;23;19912;-71
2022/07/28 01:34:02;;;;;;;;;;;11.40;99.90;;;;;;6161056;23;19920;-72
2022/07/28 01:36:31;;;;;;;;;;;11.50;99.90;;;;;;6160368;23;19916;-72
2022/07/28 01:39:03;;;;;;;;;;;11.50;99.90;;;;;;6161392;23;19916;-72
2022/07/28 01:41:31;;;;;;;;;;;11.60;99.90;;;;;;6160594;23;19927;-72
2022/07/28 01:44:10;;;;;;;;;;;11.50;99.90;;;;;;6137443;23;19920;-72
2022/07/28 01:46:39;;;;;;;;;;;11.40;99.90;;;;;;6136633;23;20024;-72
2022/07/28 01:49:08;;;;;;;;;;;11.40;99.90;;;;;;6160401;23;19912;-72
2022/07/28 01:51:35;;;;;;;;;;;11.40;99.90;;;;;;6186030;23;20316;-71
2022/07/28 01:54:08;;;;;;;;;;;11.40;99.90;;;;;;6160476;23;19943;-71
2022/07/28 01:56:47;;;;;;;;;;;11.30;99.90;;;;;;6160218;23;19919;-72
2022/07/28 01:59:13;;;;;;;;;;;11.40;99.90;;;;;;6159530;23;19916;-71
2022/07/28 02:01:44;;;;;;;;;;;11.30;99.90;;;;;;6135364;23;19952;-72
2022/07/28 02:04:11;;;;;;;;;;;11.30;99.90;;;;;;6135376;23;20331;-72
2022/07/28 02:06:38;;;;;;;;;;;11.20;99.90;;;;;;6135160;23;19912;-72
2022/07/28 02:09:06;;;;;;;;;;;11.30;99.90;;;;;;6135207;23;19916;-71
2022/07/28 02:11:38;;;;;;;;;;;11.30;99.90;;;;;;6160540;23;19912;-71
2022/07/28 02:14:11;;;;;;;;;;;11.30;99.90;;;;;;6160677;23;19916;-72
2022/07/28 02:16:43;;;;;;;;;;;11.20;99.90;;;;;;6159897;23;20207;-72
2022/07/28 02:19:30;;;;;;;;;;;11.20;99.90;;;;;;6136453;23;20310;-72
2022/07/28 02:22:02;;;;;;;;;;;11.20;99.90;;;;;;6161331;23;20442;-72
2022/07/28 02:24:28;;;;;;;;;;;11.20;99.90;;;;;;6135065;23;19919;-71
2022/07/28 02:26:59;;;;;;;;;;;11.20;99.90;;;;;;6159890;23;19919;-71
2022/07/28 02:29:30;;;;;;;;;;;11.20;99.90;;;;;;6135666;23;19912;-72
2022/07/28 02:32:01;;;;;;;;;;;11.20;99.90;;;;;;6159807;23;20340;-72
2022/07/28 02:34:28;;;;;;;;;;;11.20;99.90;;;;;;6159741;23;19987;-72
2022/07/28 02:36:57;;;;;;;;;;;11.20;99.90;;;;;;6159702;23;19919;-71
2022/07/28 02:39:32;;;;;;;;;;;11.20;99.90;;;;;;6159891;23;19967;-71
2022/07/28 02:42:05;;;;;;;;;;;11.20;99.90;;;;;;6159645;23;19912;-72
2022/07/28 02:44:37;;;;;;;;;;;11.10;99.90;;;;;;6160129;23;19912;-72
2022/07/28 02:47:05;;;;;;;;;;;11.10;99.90;;;;;;6159625;23;19912;-72
2022/07/28 02:49:32;;;;;;;;;;;11.10;99.90;;;;;;6110550;23;19923;-72
2022/07/28 02:51:59;;;;;;;;;;;11.00;99.90;;;;;;6185850;23;19995;-72
2022/07/28 02:54:37;;;;;;;;;;;11.00;99.90;;;;;;6160302;23;19983;-71
2022/07/28 02:57:03;;;;;;;;;;;11.10;99.90;;;;;;6159819;23;19983;-71
2022/07/28 02:59:33;;;;;;;;;;;11.10;99.90;;;;;;6185880;23;20364;-72
2022/07/28 03:01:59;;;;;;;;;;;11.10;99.90;;;;;;6159611;23;20385;-72
2022/07/28 03:07:15;;;;;;;;;;;11.00;99.90;;;;;;6139268;23;19917;-71
2022/07/28 03:09:42;;;;;;;;;;;11.00;99.90;;;;;;6137062;23;19919;-71
2022/07/28 03:12:09;;;;;;;;;;;11.00;99.90;;;;;;6137200;23;19916;-71
2022/07/28 03:14:37;;;;;;;;;;;11.00;99.90;;;;;;6137522;23;19915;-72
2022/07/28 03:17:05;;;;;;;;;;;10.90;99.90;;;;;;6161479;23;19948;-71
2022/07/28 03:19:33;;;;;;;;;;;10.90;99.90;;;;;;6161611;23;19971;-72
2022/07/28 03:22:01;;;;;;;;;;;10.90;99.90;;;;;;6161613;23;19916;-72
2022/07/28 03:24:29;;;;;;;;;;;10.90;99.90;;;;;;6161785;23;20267;-71
2022/07/28 03:26:58;;;;;;;;;;;10.90;99.90;;;;;;6137091;23;19916;-72
2022/07/28 03:29:27;;;;;;;;;;;10.80;99.90;;;;;;6161973;23;19943;-72
2022/07/28 03:31:59;;;;;;;;;;;10.90;99.90;;;;;;6161394;23;19923;-72
2022/07/28 03:34:28;;;;;;;;;;;10.80;99.90;;;;;;6161298;23;19996;-71
2022/07/28 03:37:01;;;;;;;;;;;10.80;99.90;;;;;;6136389;23;20236;-71
2022/07/28 03:39:31;;;;;;;;;;;10.80;99.90;;;;;;6136804;23;19966;-72
2022/07/28 03:41:58;;;;;;;;;;;10.80;99.90;;;;;;6161839;23;19912;-71
2022/07/28 03:44:24;;;;;;;;;;;10.80;99.90;;;;;;6161357;23;20298;-72
2022/07/28 03:46:55;;;;;;;;;;;10.80;99.90;;;;;;6161624;23;19986;-71
2022/07/28 03:49:32;;;;;;;;;;;10.80;99.90;;;;;;6161640;23;19973;-71
2022/07/28 03:52:05;;;;;;;;;;;10.70;99.90;;;;;;6136642;23;20095;-71
2022/07/28 03:54:34;;;;;;;;;;;10.80;99.90;;;;;;6161390;23;19956;-72
2022/07/28 03:57:00;;;;;;;;;;;10.80;99.90;;;;;;6110570;23;19971;-71
2022/07/28 03:59:25;;;;;;;;;;;10.80;99.90;;;;;;6136620;23;20300;-71
2022/07/28 04:01:53;;;;;;;;;;;10.80;99.90;;;;;;6110565;23;19916;-70
2022/07/28 04:04:18;;;;;;;;;;;10.80;99.90;;;;;;6161133;23;19935;-71
2022/07/28 04:06:46;;;;;;;;;;;10.80;99.90;;;;;;6187594;23;19917;-71
2022/07/28 04:09:15;;;;;;;;;;;10.80;99.90;;;;;;6161131;23;19920;-71
2022/07/28 04:11:45;;;;;;;;;;;10.70;99.90;;;;;;6137715;23;19912;-71
2022/07/28 04:14:11;;;;;;;;;;;10.70;99.90;;;;;;6136903;23;20350;-71
2022/07/28 04:16:43;;;;;;;;;;;10.80;99.90;;;;;;6160568;23;19928;-71
2022/07/28 04:19:09;;;;;;;;;;;10.80;99.90;;;;;;6136706;23;19916;-71
2022/07/28 04:21:45;;;;;;;;;;;10.70;99.90;;;;;;6161722;23;20286;-71
2022/07/28 04:24:11;;;;;;;;;;;10.70;99.90;;;;;;6160992;23;19912;-71
2022/07/28 04:26:37;;;;;;;;;;;10.70;99.90;;;;;;6136932;23;19912;-71
2022/07/28 04:29:02;;;;;;;;;;;10.60;99.90;;;;;;6137267;23;20235;-72
2022/07/28 04:31:28;;;;;;;;;;;10.40;99.90;;;;;;6161007;23;19912;-71
2022/07/28 04:33:54;;;;;;;;;;;10.60;99.90;;;;;;6136526;23;19916;-72
2022/07/28 04:36:22;;;;;;;;;;;10.60;99.90;;;;;;6136965;23;19919;-71
2022/07/28 04:38:58;;;;;;;;;;;10.60;99.90;;;;;;6136351;23;19912;-71
2022/07/28 04:41:24;;;;;;;;;;;10.60;99.90;;;;;;6137873;23;19913;-71
2022/07/28 04:43:52;;;;;;;;;;;10.60;99.90;;;;;;6136726;23;19912;-72
2022/07/28 04:46:18;;;;;;;;;;;10.60;99.90;;;;;;6187428;23;19994;-71
2022/07/28 04:48:44;;;;;;;;;;;10.70;99.90;;;;;;6136218;23;19940;-72
2022/07/28 04:51:09;;;;;;;;;;;10.70;99.90;;;;;;6136284;23;19944;-71
2022/07/28 04:53:35;;;;;;;;;;;10.80;99.90;;;;;;6160468;23;19991;-72
2022/07/28 04:56:01;;;;;;;;;;;10.80;99.90;;;;;;6161143;23;19916;-72
2022/07/28 04:58:27;;;;;;;;;;;10.80;99.90;;;;;;6135931;23;19916;-71
2022/07/28 05:00:58;;;;;;;;;;;11.00;99.90;;;;;;6161096;23;19916;-72
2022/07/28 05:03:24;;;;;;;;;;;11.10;99.90;;;;;;6136095;23;19912;-73
2022/07/28 05:05:52;;;;;;;;;;;11.20;99.90;;;;;;6160180;23;19955;-73
2022/07/28 05:08:20;;;;;;;;;;;11.20;99.90;;;;;;6136186;23;19920;-72
2022/07/28 05:11:06;;;;;;;;;;;11.40;99.90;;;;;;6161990;23;19912;-72
2022/07/28 05:13:38;;;;;;;;;;;11.60;99.90;;;;;;6160415;23;20346;-71
2022/07/28 05:16:04;;;;;;;;;;;11.80;99.90;;;;;;6160712;23;19966;-72
2022/07/28 05:18:35;;;;;;;;;;;11.90;99.90;;;;;;6136652;23;19912;-72
2022/07/28 05:21:06;;;;;;;;;;;12.10;99.90;;;;;;6187098;23;19916;-71
2022/07/28 05:23:32;;;;;;;;;;;12.20;99.90;;;;;;6135873;23;19967;-72
2022/07/28 05:26:01;;;;;;;;;;;12.30;99.90;;;;;;6158480;23;19916;-72
2022/07/28 05:28:35;;;;;;;;;;;12.40;99.90;;;;;;6160302;23;19967;-72
2022/07/28 05:31:10;;;;;;;;;;;;;;;;;;;;;
2022/07/28 05:33:44;;;;;;;;;;;12.60;99.90;;;;;;6186634;23;19916;-74
2022/07/28 05:36:13;;;;;;;;;;;12.80;99.90;;;;;;6135840;23;19912;-71
2022/07/28 05:38:41;;;;;;;;;;;12.90;99.90;;;;;;6159977;23;19931;-71
2022/07/28 05:41:12;;;;;;;;;;;13.10;99.90;;;;;;6186921;23;20228;-71
2022/07/28 05:43:38;;;;;;;;;;;13.20;99.90;;;;;;6136150;23;19919;-71
2022/07/28 05:46:31;;;;;;;;;;;13.30;99.90;;;;;;6160564;23;19912;-71
2022/07/28 05:49:06;;;;;;;;;;;13.70;99.90;;;;;;6160723;23;19948;-71
2022/07/28 05:51:34;;;;;;;;;;;13.60;99.90;;;;;;6186979;23;19935;-71
2022/07/28 05:54:08;;;;;;;;;;;13.70;99.90;;;;;;6132664;23;19916;-71
2022/07/28 05:56:53;;;;;;;;;;;13.90;99.90;;;;;;6160254;23;19920;-71
2022/07/28 05:59:21;;;;;;;;;;;14.00;99.90;;;;;;6136162;23;19959;-71
2022/07/28 06:01:56;;;;;;;;;;;14.10;99.90;;;;;;6137292;23;19959;-71
2022/07/28 06:04:21;;;;;;;;;;;14.20;99.90;;;;;;6186451;23;20003;-71
2022/07/28 06:06:47;;;;;;;;;;;14.30;99.90;;;;;;6134481;23;20331;-71
2022/07/28 06:09:14;;;;;;;;;;;14.40;99.90;;;;;;6111201;23;19955;-71
2022/07/28 06:11:40;;;;;;;;;;;14.40;99.90;;;;;;6160399;23;19918;-71
2022/07/28 06:14:06;;;;;;;;;;;14.50;99.90;;;;;;6134553;23;19979;-70
2022/07/28 06:16:37;;;;;;;;;;;14.50;99.90;;;;;;6135803;23;19987;-71
2022/07/28 06:19:08;;;;;;;;;;;14.50;99.90;;;;;;6136259;23;19931;-71
2022/07/28 06:21:33;;;;;;;;;;;14.50;99.90;;;;;;6159564;23;19917;-71
2022/07/28 06:24:02;;;;;;;;;;;14.50;99.90;;;;;;6135660;23;20282;-71
2022/07/28 06:26:27;;;;;;;;;;;14.60;99.90;;;;;;6135312;23;19916;-71
2022/07/28 06:29:02;;;;;;;;;;;14.60;99.90;;;;;;6134385;23;19912;-71
2022/07/28 06:31:30;;;;;;;;;;;14.60;99.90;;;;;;6135315;23;19934;-72
2022/07/28 06:34:04;;;;;;;;;;;14.60;99.90;;;;;;6135354;23;19916;-72
2022/07/28 06:36:35;;;;;;;;;;;14.80;99.90;;;;;;6159758;23;20224;-71
2022/07/28 06:39:04;;;;;;;;;;;14.70;99.90;;;;;;6159866;23;19950;-71
2022/07/28 06:41:40;;;;;;;;;;;14.70;99.90;;;;;;6135441;23;20243;-72
2022/07/28 06:44:12;;;;;;;;;;;14.70;99.90;;;;;;6159320;23;19951;-72
2022/07/28 06:46:38;;;;;;;;;;;14.80;99.90;;;;;;6134885;23;19923;-71
2022/07/28 06:49:06;;;;;;;;;;;14.80;99.90;;;;;;6159988;23;19916;-73
2022/07/28 06:51:34;;;;;;;;;;;14.90;99.90;;;;;;6159525;23;19923;-71
2022/07/28 06:54:02;;;;;;;;;;;14.90;99.90;;;;;;6134864;23;20338;-72
2022/07/28 06:56:45;;;;;;;;;;;15.00;99.90;;;;;;6160071;23;19916;-71
2022/07/28 06:59:13;;;;;;;;;;;15.00;99.90;;;;;;6135415;23;19922;-72
2022/07/28 07:01:45;;;;;;;;;;;15.10;99.90;;;;;;6135793;23;19962;-71
2022/07/28 07:04:16;;;;;;;;;;;15.10;99.90;;;;;;6159951;23;19916;-72
2022/07/28 07:06:51;;;;;;;;;;;15.20;99.90;;;;;;6186279;23;20320;-72
2022/07/28 07:09:22;;;;;;;;;;;15.40;99.90;;;;;;6135426;23;19966;-71
2022/07/28 07:12:28;;;;;;;;;;;15.40;99.90;;;;;;6186395;23;19912;-72
2022/07/28 07:14:54;;;;;;;;;;;15.60;99.90;;;;;;6186102;23;19912;-72
2022/07/28 07:17:25;;;;;;;;;;;15.70;99.90;;;;;;6159969;23;19919;-72
2022/07/28 07:19:53;;;;;;;;;;;15.90;99.90;;;;;;6160204;23;19916;-72
2022/07/28 07:22:28;;;;;;;;;;;16.00;99.90;;;;;;6161683;23;20246;-71
2022/07/28 07:24:56;;;;;;;;;;;16.00;99.90;;;;;;6135480;23;19951;-76
2022/07/28 07:27:22;;;;;;;;;;;16.00;99.90;;;;;;6159556;23;19912;-73
2022/07/28 07:29:48;;;;;;;;;;;15.90;99.90;;;;;;6135618;23;19988;-76
2022/07/28 07:32:13;;;;;;;;;;;15.90;99.90;;;;;;6159614;23;19988;-74
2022/07/28 07:34:39;;;;;;;;;;;15.90;99.90;;;;;;6159969;23;19920;-72
2022/07/28 07:37:12;;;;;;;;;;;15.90;99.90;;;;;;6159451;23;19917;-76
2022/07/28 07:39:38;;;;;;;;;;;16.00;99.90;;;;;;6135001;23;19920;-76
2022/07/28 07:42:03;;;;;;;;;;;16.00;99.90;;;;;;6159669;23;20249;-75
2022/07/28 07:44:29;;;;;;;;;;;16.10;99.90;;;;;;6159693;23;20335;-74
2022/07/28 07:46:54;;;;;;;;;;;16.10;99.90;;;;;;6135356;23;19912;-75
2022/07/28 07:49:20;;;;;;;;;;;16.20;99.90;;;;;;6159707;23;19912;-73
2022/07/28 07:51:46;;;;;;;;;;;16.20;99.90;;;;;;6136376;23;19912;-76
2022/07/28 07:54:11;;;;;;;;;;;16.20;99.90;;;;;;6135291;23;19944;-74
2022/07/28 07:56:37;;;;;;;;;;;16.30;99.90;;;;;;6161415;23;19912;-75
2022/07/28 07:59:02;;;;;;;;;;;16.30;99.90;;;;;;6161478;23;19975;-75
2022/07/28 08:01:28;;;;;;;;;;;16.40;99.90;;;;;;6136872;23;19983;-76
2022/07/28 08:03:53;;;;;;;;;;;16.50;99.90;;;;;;6137213;23;19916;-75
2022/07/28 08:06:19;;;;;;;;;;;16.60;99.90;;;;;;6161453;23;19916;-75
2022/07/28 08:08:45;;;;;;;;;;;16.70;99.90;;;;;;6161252;23;19943;-73
2022/07/28 08:11:16;;;;;;;;;;;16.80;99.90;;;;;;6137122;23;20047;-78
2022/07/28 08:13:42;;;;;;;;;;;17.00;99.90;;;;;;6161157;23;20027;-79
2022/07/28 08:16:07;;;;;;;;;;;16.90;99.90;;;;;;6136573;23;20336;-76
2022/07/28 08:18:33;;;;;;;;;;;16.90;99.90;;;;;;6136589;23;19917;-75
2022/07/28 08:20:59;;;;;;;;;;;17.10;99.90;;;;;;6160984;23;19948;-80
2022/07/28 08:23:24;;;;;;;;;;;17.30;99.90;;;;;;6137059;23;19959;-75
2022/07/28 08:25:50;;;;;;;;;;;17.50;99.90;;;;;;6187792;23;19912;-74
2022/07/28 08:28:15;;;;;;;;;;;17.60;99.90;;;;;;6136484;23;19919;-76
2022/07/28 08:30:44;;;;;;;;;;;17.80;99.90;;;;;;6136329;23;19912;-79
2022/07/28 08:33:12;;;;;;;;;;;17.90;99.90;;;;;;6136152;23;20230;-79
2022/07/28 08:35:42;;;;;;;;;;;18.00;99.90;;;;;;6136673;23;20234;-73
2022/07/28 08:38:10;;;;;;;;;;;18.00;99.90;;;;;;6187089;23;20298;-77
2022/07/28 08:40:47;;;;;;;;;;;18.20;99.90;;;;;;6161210;23;20259;-78
2022/07/28 08:43:16;;;;;;;;;;;18.30;99.90;;;;;;6159433;23;19943;-77
2022/07/28 08:45:49;;;;;;;;;;;18.30;99.90;;;;;;6159528;23;19912;-78
2022/07/28 08:48:15;;;;;;;;;;;18.40;99.90;;;;;;6136574;23;19944;-76
2022/07/28 08:51:08;;;;;;;;;;;18.70;98.90;;;;;;6136402;23;20239;-78
2022/07/28 08:53:41;;;;;;;;;;;18.60;98.30;;;;;;6158895;23;20342;-77
2022/07/28 08:56:13;;;;;;;;;;;18.40;99.70;;;;;;6160824;23;19916;-74
2022/07/28 08:58:39;;;;;;;;;;;18.30;99.50;;;;;;6136391;23;19920;-77
2022/07/28 09:01:07;;;;;;;;;;;18.00;99.30;;;;;;6136225;23;19967;-77
2022/07/28 09:03:37;;;;;;;;;;;17.90;99.90;;;;;;6137020;23;19919;-76
2022/07/28 09:06:06;;;;;;;;;;;17.90;99.90;;;;;;6135896;23;19916;-80
2022/07/28 09:08:32;;;;;;;;;;;17.90;99.90;;;;;;6136140;23;19916;-75
2022/07/28 09:10:58;;;;;;;;;;;17.80;99.90;;;;;;6136710;23;19987;-77
2022/07/28 09:13:23;;;;;;;;;;;17.70;99.90;;;;;;6139108;23;19918;-81
2022/07/28 09:15:49;;;;;;;;;;;17.70;99.90;;;;;;6160642;23;20302;-78
2022/07/28 09:18:24;;;;;;;;;;;17.60;99.90;;;;;;6136245;23;20231;-78
2022/07/28 09:20:53;;;;;;;;;;;17.60;99.90;;;;;;6160671;23;19963;-76
2022/07/28 09:23:40;;;;;;;;;;;17.40;99.90;;;;;;6113153;23;19919;-78
2022/07/28 09:26:09;;;;;;;;;;;17.60;99.90;;;;;;6136469;23;19912;-82
2022/07/28 09:28:45;;;;;;;;;;;17.80;99.90;;;;;;6135912;23;20338;-80
2022/07/28 09:31:12;;;;;;;;;;;17.70;99.90;;;;;;6136264;23;19919;-78
2022/07/28 09:33:51;;;;;;;;;;;17.80;99.90;;;;;;6135809;23;19912;-80
2022/07/28 09:36:17;;;;;;;;;;;17.80;99.90;;;;;;6135527;23;19919;-80
2022/07/28 09:38:45;;;;;;;;;;;17.80;99.90;;;;;;6136456;23;19920;-80
2022/07/28 09:41:12;;;;;;;;;;;17.90;99.90;;;;;;6136229;23;19912;-80
2022/07/28 09:43:39;;;;;;;;;;;18.00;99.90;;;;;;6136054;23;19912;-80
2022/07/28 09:46:12;;;;;;;;;;;18.00;99.90;;;;;;6135984;23;19912;-81
2022/07/28 09:48:52;;;;;;;;;;;18.10;99.90;;;;;;6160477;23;19963;-80
2022/07/28 09:51:20;;;;;;;;;;;18.00;99.90;;;;;;6136020;23;20334;-81
2022/07/28 09:53:45;;;;;;;;;;;18.20;99.90;;;;;;6136036;23;19912;-79
2022/07/28 09:56:14;;;;;;;;;;;17.90;99.90;;;;;;6136056;23;20052;-80
2022/07/28 10:05:49;;;;;;;;;;;17.90;99.90;;;;;;6185159;23;19919;-79
2022/07/28 10:08:45;;;;;;;;;;;18.00;99.90;;;;;;6130319;23;19922;-78
2022/07/28 10:11:26;;;;;;;;;;;18.00;99.80;;;;;;6106009;23;20288;-76
2022/07/28 10:13:56;;;;;;;;;;;18.50;99.50;;;;;;6084204;23;19919;-79
2022/07/28 10:16:32;;;;;;;;;;;18.80;99.20;;;;;;6107568;23;19916;-79
2022/07/28 10:19:06;;;;;;;;;;;18.90;98.30;;;;;;6105618;23;20251;-76
2022/07/28 10:21:44;;;;;;;;;;;19.10;97.40;;;;;;6106099;23;19919;-78
2022/07/28 10:24:19;;;;;;;;;;;19.30;97.10;;;;;;6106418;23;19947;-81
2022/07/28 10:26:49;;;;;;;;;;;19.50;97.30;;;;;;6106083;23;19935;-78
2022/07/28 10:29:19;;;;;;;;;;;19.60;96.70;;;;;;6106679;23;19967;-78
2022/07/28 10:31:57;;;;;;;;;;;20.00;96.00;;;;;;6107017;23;19963;-81
2022/07/28 10:34:35;;;;;;;;;;;19.90;95.20;;;;;;6130510;23;20242;-79
2022/07/28 10:37:13;;;;;;;;;;;20.00;94.90;;;;;;6106032;23;19912;-77
2022/07/28 10:39:50;;;;;;;;;;;20.00;95.40;;;;;;6107920;23;19949;-77
2022/07/28 10:42:19;;;;;;;;;;;20.30;95.50;;;;;;6107812;23;19968;-76
2022/07/28 10:44:53;;;;;;;;;;;20.70;95.20;;;;;;6108474;23;19951;-76
2022/07/28 10:47:29;;;;;;;;;;;;;;;;;;;;;
2022/07/28 10:49:56;;;;;;;;;;;20.30;94.40;;;;;;6130684;23;19912;-76
2022/07/28 10:52:22;;;;;;;;;;;20.10;94.90;;;;;;6156727;23;20423;-75
2022/07/28 10:54:53;;;;;;;;;;;19.80;94.50;;;;;;6130894;23;19993;-76
2022/07/28 10:57:20;;;;;;;;;;;19.70;93.90;;;;;;6130203;23;19922;-77
2022/07/28 10:59:47;;;;;;;;;;;19.50;95.00;;;;;;6105879;23;19923;-76
2022/07/28 11:02:31;;;;;;;;;;;19.50;96.00;;;;;;6105851;23;19987;-75
2022/07/28 11:05:00;;;;;;;;;;;19.40;95.00;;;;;;6130140;23;19995;-75
2022/07/28 11:07:36;;;;;;;;;;;19.30;95.50;;;;;;6135178;23;19919;-75
2022/07/28 11:10:15;;;;;;;;;;;19.30;94.80;;;;;;6135136;23;19975;-75
2022/07/28 11:12:44;;;;;;;;;;;19.10;95.10;;;;;;6160112;23;19918;-76
2022/07/28 11:15:29;;;;;;;;;;;19.20;95.70;;;;;;6135155;23;19924;-76
2022/07/28 11:17:58;;;;;;;;;;;19.10;95.90;;;;;;6135390;23;19964;-77
2022/07/28 11:20:43;;;;;;;;;;;19.30;95.50;;;;;;6135070;23;19922;-75
2022/07/28 11:23:27;;;;;;;;;;;19.70;95.60;;;;;;6135215;23;19912;-80
2022/07/28 11:26:11;;;;;;;;;;;19.90;95.30;;;;;;6159646;23;19962;-80
2022/07/28 11:28:56;;;;;;;;;;;20.30;93.00;;;;;;6136070;23;19963;-79
2022/07/28 11:31:40;;;;;;;;;;;20.60;92.30;;;;;;6137706;23;19920;-73
2022/07/28 11:34:07;;;;;;;;;;;20.30;90.00;;;;;;6137029;23;20251;-78
2022/07/28 11:36:52;;;;;;;;;;;20.40;90.60;;;;;;6137128;23;19919;-75
2022/07/28 11:39:28;;;;;;;;;;;20.20;91.30;;;;;;6137015;23;19987;-79
2022/07/28 11:41:54;;;;;;;;;;;20.10;87.80;;;;;;6161834;23;19919;-78
2022/07/28 11:44:26;;;;;;;;;;;20.20;90.30;;;;;;6137136;23;20319;-77
2022/07/28 11:46:52;;;;;;;;;;;20.10;89.50;;;;;;6136857;23;19912;-77
2022/07/28 11:49:24;;;;;;;;;;;20.00;87.80;;;;;;6161335;23;19988;-75
2022/07/28 12:06:14;;;;;;;;;;;19.20;92.20;;;;;;5898031;24;19954;-74
2022/07/28 12:08:50;;;;;;;;;;;19.20;92.60;;;;;;5917848;23;19914;-73
2022/07/28 12:11:15;;;;;;;;;;;19.20;93.00;;;;;;5929235;23;20318;-73
2022/07/28 12:13:41;;;;;;;;;;;19.10;92.80;;;;;;6014493;23;19914;-77
2022/07/28 12:16:07;;;;;;;;;;;19.10;92.90;;;;;;6105307;23;19916;-75
2022/07/28 12:18:33;;;;;;;;;;;19.10;92.90;;;;;;6105857;23;20004;-72
2022/07/28 12:21:26;;;;;;;;;;;19.10;92.90;;;;;;6129578;23;19917;-73
2022/07/28 12:24:00;;;;;;;;;;;19.00;93.10;;;;;;6075409;23;20453;-70
2022/07/28 12:26:29;;;;;;;;;;;19.00;93.20;;;;;;6150070;23;19919;-73
2022/07/28 12:28:55;;;;;;;;;;;19.10;93.00;;;;;;6129942;23;19912;-70
2022/07/28 12:31:31;;;;;;;;;;;19.20;94.40;;;;;;6130444;23;19991;-71
2022/07/28 12:47:10;;;;;;;;;;;19.40;94.00;;;;;;6065954;23;19944;-75
2022/07/28 12:49:40;;;;;;;;;;;19.60;94.00;;;;;;6042518;23;19929;-74
2022/07/28 12:52:19;;;;;;;;;;;19.60;93.40;;;;;;6124019;23;20327;-73
2022/07/28 12:55:16;;;;;;;;;;;;;;;;;;;;;
2022/07/28 13:04:37;;;;;;;;;;;19.90;91.80;;;;;;6125291;23;20295;-77
2022/07/28 13:07:08;;;;;;;;;;;19.80;91.90;;;;;;6120773;23;19983;-75
2022/07/28 13:09:35;;;;;;;;;;;19.40;92.30;;;;;;6161190;23;19916;-75
2022/07/28 13:12:12;;;;;;;;;;;19.60;92.80;;;;;;6136804;23;20323;-76
2022/07/28 13:14:38;;;;;;;;;;;19.50;92.60;;;;;;6136387;23;20247;-77
2022/07/28 13:17:04;;;;;;;;;;;19.50;92.70;;;;;;6135988;23;19912;-77
2022/07/28 13:19:30;;;;;;;;;;;19.70;92.90;;;;;;6160985;23;19916;-77
2022/07/28 13:21:56;;;;;;;;;;;20.00;92.90;;;;;;6161002;23;19964;-76
2022/07/28 13:24:25;;;;;;;;;;;20.00;93.10;;;;;;6160705;23;19920;-76
2022/07/28 13:26:50;;;;;;;;;;;20.10;92.70;;;;;;6136417;23;19916;-77
2022/07/28 13:29:16;;;;;;;;;;;20.10;91.70;;;;;;6136238;23;20243;-78
2022/07/28 13:31:41;;;;;;;;;;;20.10;92.60;;;;;;6135973;23;19991;-76
2022/07/28 13:34:15;;;;;;;;;;;20.10;92.60;;;;;;6135841;23;19987;-81
2022/07/28 13:36:44;;;;;;;;;;;20.40;92.70;;;;;;6134416;23;19919;-80
2022/07/28 13:39:53;;;;;;;;;;;;;;;;;;;;;
2022/07/28 13:42:31;;;;;;;;;;;20.10;93.80;;;;;;6085086;23;19951;-82
2022/07/28 13:44:57;;;;;;;;;;;19.90;93.00;;;;;;6137067;23;19912;-82
2022/07/28 13:47:25;;;;;;;;;;;19.80;93.20;;;;;;6135911;23;19979;-82
2022/07/28 13:50:17;;;;;;;;;;;19.80;93.70;;;;;;6160106;23;20346;-82
2022/07/28 13:52:48;;;;;;;;;;;19.80;93.90;;;;;;6136196;23;19912;-81
2022/07/28 13:55:13;;;;;;;;;;;19.70;94.40;;;;;;6135897;23;20323;-81
2022/07/28 13:58:01;;;;;;;;;;;19.80;93.50;;;;;;6135754;23;19923;-77
2022/07/28 14:03:42;;;;;;;;;;;20.20;93.70;;;;;;6159065;23;19916;-84
2022/07/28 14:20:42;;;;;;;;;;;20.30;92.50;;;;;;6065089;23;19916;-80
2022/07/28 14:30:38;;;;;;;;;;;21.60;91.60;;;;;;6008390;23;19974;-78
2022/07/28 14:33:10;;;;;;;;;;;21.70;90.30;;;;;;5966731;23;20405;-82
2022/07/28 14:35:38;;;;;;;;;;;21.70;90.80;;;;;;6075909;23;19913;-80
2022/07/28 14:38:07;;;;;;;;;;;21.60;90.40;;;;;;6072903;23;20415;-80
2022/07/28 14:40:33;;;;;;;;;;;21.90;89.60;;;;;;6075704;23;19917;-80
2022/07/28 14:42:59;;;;;;;;;;;21.60;88.80;;;;;;6075951;23;19916;-78
2022/07/28 14:45:24;;;;;;;;;;;22.10;88.80;;;;;;6075889;23;19941;-83
2022/07/28 14:47:51;;;;;;;;;;;21.70;88.20;;;;;;6076096;23;19968;-81
2022/07/28 14:50:22;;;;;;;;;;;21.80;88.50;;;;;;6076306;23;19924;-82
2022/07/28 14:52:48;;;;;;;;;;;21.50;87.80;;;;;;6075877;23;19991;-81
2022/07/28 14:55:14;;;;;;;;;;;21.30;88.20;;;;;;6132501;23;20342;-79
2022/07/28 14:57:42;;;;;;;;;;;21.60;87.70;;;;;;6135391;23;19947;-79
2022/07/28 15:00:09;;;;;;;;;;;22.00;87.00;;;;;;6136291;23;19944;-78
2022/07/28 15:02:34;;;;;;;;;;;22.20;86.50;;;;;;6135571;23;19919;-82
2022/07/28 15:05:03;;;;;;;;;;;22.20;86.00;;;;;;6135286;23;19912;-81
2022/07/28 15:07:31;;;;;;;;;;;22.10;84.40;;;;;;6135130;23;20347;-79
2022/07/28 15:09:57;;;;;;;;;;;21.80;85.60;;;;;;6136853;23;19916;-81
2022/07/28 15:12:23;;;;;;;;;;;21.70;85.40;;;;;;6136955;23;20289;-81
2022/07/28 15:14:48;;;;;;;;;;;21.40;86.80;;;;;;6160626;23;19916;-82
2022/07/28 15:17:14;;;;;;;;;;;21.10;87.30;;;;;;6136279;23;19990;-79
2022/07/28 15:19:46;;;;;;;;;;;21.00;89.20;;;;;;6134633;23;19923;-81
2022/07/28 15:22:12;;;;;;;;;;;21.20;89.10;;;;;;6160143;23;19964;-82
2022/07/28 15:24:40;;;;;;;;;;;21.80;86.10;;;;;;6135568;23;19915;-83
2022/07/28 15:27:09;;;;;;;;;;;22.00;85.60;;;;;;6135477;23;19912;-82
2022/07/28 15:29:36;;;;;;;;;;;22.60;85.00;;;;;;6159619;23;19912;-84
2022/07/28 15:32:04;;;;;;;;;;;22.50;82.80;;;;;;6135162;23;20274;-81
2022/07/28 15:34:30;;;;;;;;;;;22.60;83.60;;;;;;6135259;23;19944;-82
2022/07/28 15:36:56;;;;;;;;;;;22.00;83.90;;;;;;6135367;23;20266;-83
2022/07/28 15:39:22;;;;;;;;;;;22.30;84.30;;;;;;6135321;23;19916;-81
2022/07/28 15:41:50;;;;;;;;;;;22.60;83.90;;;;;;6135503;23;19935;-81
2022/07/28 15:44:16;;;;;;;;;;;22.60;82.60;;;;;;6135290;23;19986;-82
2022/07/28 15:46:42;;;;;;;;;;;22.90;82.20;;;;;;6135471;23;19943;-82
2022/07/28 15:49:09;;;;;;;;;;;23.10;81.60;;;;;;6135473;23;19943;-80